TAF

TERMINAL AERODROME FORECAST
STASIUN METEOROLOGI HANG NADIM BATAM
ADDS - METARS form results

Aviation Digital Data Service (ADDS)

Output produced by METARs form (1010 UTC 10 July 2020)
found at http://www.aviationweather.gov/metar/data/
 
METAR text: WIDD 101000Z 14005KT 9999 FEW014 29/22 Q1009
Conditions at: WIDD (HANG NADIM , ID) observed 1000 UTC 10 July 2020
Temperature: 29.0°C (84°F)
Dewpoint: 22.0°C (72°F) [RH = 66%]
Pressure (altimeter): 29.79 inches Hg (1009.0 mb)
Winds: from the SE (140 degrees) at 6 MPH (5 knots; 2.6 m/s)
Visibility: 6 or more miles (10+ km)
Ceiling: at least 12,000 feet AGL
Clouds: few clouds at 1400 feet AGL
Weather: no significant weather observed at this time

METAR text: WIDD 100930Z 13006KT 9999 FEW014 29/22 Q1009
Conditions at: WIDD (HANG NADIM , ID) observed 0930 UTC 10 July 2020
Temperature: 29.0°C (84°F)
Dewpoint: 22.0°C (72°F) [RH = 66%]
Pressure (altimeter): 29.79 inches Hg (1009.0 mb)
Winds: from the SE (130 degrees) at 7 MPH (6 knots; 3.1 m/s)
Visibility: 6 or more miles (10+ km)
Ceiling: at least 12,000 feet AGL
Clouds: few clouds at 1400 feet AGL
Weather: no significant weather observed at this time

Forecast for: WIDD (HANG NADIM , ID)
Text: TAF WIDD 100500Z 1006/1106 13006KT 9999 SCT014
Forecast period: 0600 UTC 10 July 2020 to 0600 UTC 11 July 2020
Forecast type: FROM: standard forecast or significant change
Winds: from the SE (130 degrees) at 7 MPH (6 knots; 3.1 m/s)
Visibility: 6 or more miles 10+ km)
Ceiling: at least 12,000 feet AGL
Clouds: scattered clouds at 1400 feet AGL
Weather: no significant weather forecast for this period
Text: PROB30
Forecast period: 0600 to 1000 UTC 10 July 2020
Forecast type: TEMPORARY: The following changes expected for less than half the time period
Visibility: 3 miles (5 km)
Ceiling: unknown
Clouds: missing
Weather: -RA  (light rain)

Informasi TAF dapat diakses juga di http://aviation.bmkg.go.id